Time;durP1;ratioP1;P1;durP2;ratioP2;P2;SDS_P1;SDS_P2;PMS_P1;PMS_P2;Temp;Humidity;BMP_temperature;BMP_pressure;BME280_temperature;BME280_humidity;BME280_pressure;Samples;Min_cycle;Max_cycle;Signal;HPM_P1;HPM_P2
2023/03/18 00:00:12;;;;;;;;;3.50;3.50;;;;;;;;117995;1183;25231;-64
2023/03/18 00:03:00;;;;;;;;;5.00;2.00;;;;;;;;118058;1186;25372;-65
2023/03/18 00:05:30;;;;;;;;;2.33;2.33;;;;;;;;118132;1187;25865;-64
2023/03/18 00:07:58;;;;;;;;;3.67;3.00;;;;;;;;118046;1190;25459;-65
2023/03/18 00:10:26;;;;;;;;;2.50;2.00;;;;;;;;117931;1180;25368;-64
2023/03/18 00:12:55;;;;;;;;;4.00;2.00;;;;;;;;117986;1177;25365;-65
2023/03/18 00:15:23;;;;;;;;;4.00;3.00;;;;;;;;117899;1191;25195;-65
2023/03/18 00:17:52;;;;;;;;;3.50;3.50;;;;;;;;117973;1179;25594;-64
2023/03/18 00:20:27;;;;;;;;;3.00;1.00;;;;;;;;117905;1177;25256;-65
2023/03/18 00:22:56;;;;;;;;;3.00;3.00;;;;;;;;117846;1177;25140;-64
2023/03/18 00:25:25;;;;;;;;;3.67;3.00;;;;;;;;117925;1177;25295;-65
2023/03/18 00:27:53;;;;;;;;;4.33;2.00;;;;;;;;117916;1181;25436;-65
2023/03/18 00:30:22;;;;;;;;;2.00;1.67;;;;;;;;117900;1190;25346;-66
2023/03/18 00:32:51;;;;;;;;;4.00;3.33;;;;;;;;117833;1180;24820;-65
2023/03/18 00:35:20;;;;;;;;;1.67;1.67;;;;;;;;117874;1183;25193;-73
2023/03/18 00:37:49;;;;;;;;;4.00;3.33;;;;;;;;117954;1190;25376;-70
2023/03/18 00:40:19;;;;;;;;;4.00;3.00;;;;;;;;117953;1180;25260;-65
2023/03/18 00:42:49;;;;;;;;;2.00;2.00;;;;;;;;117934;1190;24697;-64
2023/03/18 00:45:19;;;;;;;;;2.25;2.25;;;;;;;;117944;1178;25581;-63
2023/03/18 00:47:48;;;;;;;;;2.33;2.00;;;;;;;;117990;1177;25599;-63
2023/03/18 00:50:17;;;;;;;;;4.00;2.00;;;;;;;;117947;1191;24731;-63
2023/03/18 00:52:45;;;;;;;;;5.50;3.50;;;;;;;;117939;1183;25404;-63
2023/03/18 00:55:14;;;;;;;;;4.00;2.00;;;;;;;;117862;1191;25414;-65
2023/03/18 00:57:43;;;;;;;;;3.33;3.33;;;;;;;;117976;1179;25602;-64
2023/03/18 01:00:15;;;;;;;;;3.67;2.67;;;;;;;;117908;1177;25738;-64
2023/03/18 01:02:44;;;;;;;;;3.00;3.00;;;;;;;;117942;1179;25654;-64
2023/03/18 01:05:13;;;;;;;;;4.50;2.00;;;;;;;;117916;1180;24875;-63
2023/03/18 01:07:42;;;;;;;;;4.67;2.00;;;;;;;;117940;1190;25633;-64
2023/03/18 01:10:11;;;;;;;;;4.75;3.50;;;;;;;;117904;1190;24768;-65
2023/03/18 01:12:41;;;;;;;;;2.00;2.00;;;;;;;;117947;1179;24782;-64
2023/03/18 01:15:12;;;;;;;;;3.25;3.25;;;;;;;;117939;1182;25259;-64
2023/03/18 01:17:41;;;;;;;;;3.00;3.00;;;;;;;;117925;1190;25183;-64
2023/03/18 01:20:11;;;;;;;;;2.00;2.00;;;;;;;;117985;1177;25107;-64
2023/03/18 01:22:41;;;;;;;;;3.67;2.00;;;;;;;;117954;1177;24856;-63
2023/03/18 01:25:11;;;;;;;;;3.75;3.00;;;;;;;;117900;1179;24969;-61
2023/03/18 01:27:39;;;;;;;;;2.00;2.00;;;;;;;;117922;1190;25503;-64
2023/03/18 01:30:09;;;;;;;;;3.00;3.00;;;;;;;;117912;1177;25012;-65
2023/03/18 01:32:37;;;;;;;;;5.00;2.00;;;;;;;;117913;1184;25047;-64
2023/03/18 01:35:06;;;;;;;;;3.00;2.00;;;;;;;;117907;1186;25543;-64
2023/03/18 01:37:35;;;;;;;;;2.00;2.00;;;;;;;;117976;1179;25494;-63
2023/03/18 01:40:06;;;;;;;;;6.33;3.00;;;;;;;;118128;1190;25529;-63
2023/03/18 01:42:34;;;;;;;;;2.75;2.00;;;;;;;;117869;1180;24979;-63
2023/03/18 01:45:19;;;;;;;;;2.00;2.00;;;;;;;;117954;1190;25709;-63
2023/03/18 01:47:48;;;;;;;;;2.50;2.00;;;;;;;;117942;1190;25062;-63
2023/03/18 01:50:36;;;;;;;;;3.00;2.00;;;;;;;;117905;1177;25230;-63
2023/03/18 01:53:08;;;;;;;;;4.00;3.00;;;;;;;;117902;1188;25555;-63
2023/03/18 01:55:38;;;;;;;;;4.00;2.00;;;;;;;;117814;1179;24809;-63
2023/03/18 01:58:18;;;;;;;;;2.75;2.75;;;;;;;;117802;1177;25032;-63
2023/03/18 02:01:16;;;;;;;;;3.25;2.00;;;;;;;;117869;1177;25242;-63
2023/03/18 02:03:45;;;;;;;;;2.00;1.00;;;;;;;;117845;1179;24873;-64
2023/03/18 02:06:12;;;;;;;;;4.00;2.33;;;;;;;;117806;1179;25372;-63
2023/03/18 02:08:41;;;;;;;;;2.00;1.50;;;;;;;;117820;1185;25668;-63
2023/03/18 02:11:10;;;;;;;;;4.00;2.00;;;;;;;;117831;1187;25540;-63
2023/03/18 02:13:41;;;;;;;;;4.00;2.00;;;;;;;;117857;1180;24952;-63
2023/03/18 02:16:17;;;;;;;;;2.50;0.50;;;;;;;;117845;1187;25575;-63
2023/03/18 02:18:59;;;;;;;;;4.25;2.75;;;;;;;;117896;1177;25240;-64
2023/03/18 02:21:47;;;;;;;;;3.00;3.00;;;;;;;;117913;1180;25332;-64
2023/03/18 02:24:45;;;;;;;;;3.33;3.00;;;;;;;;117967;1190;24832;-64
2023/03/18 02:27:20;;;;;;;;;5.33;2.33;;;;;;;;118022;1179;25281;-64
2023/03/18 02:29:53;;;;;;;;;4.50;2.00;;;;;;;;117978;1187;25453;-64
2023/03/18 02:32:27;;;;;;;;;4.67;2.33;;;;;;;;118095;1177;25000;-66
2023/03/18 02:34:56;;;;;;;;;4.50;2.00;;;;;;;;118112;1184;25312;-70
2023/03/18 02:37:25;;;;;;;;;5.75;3.00;;;;;;;;117998;1178;25648;-67
2023/03/18 02:39:53;;;;;;;;;2.00;2.00;;;;;;;;118019;1187;24837;-65
2023/03/18 02:42:30;;;;;;;;;4.75;3.00;;;;;;;;117964;1177;25532;-65
2023/03/18 02:44:58;;;;;;;;;3.00;3.00;;;;;;;;117800;1181;25294;-65
2023/03/18 02:47:28;;;;;;;;;5.00;3.00;;;;;;;;117823;1190;25712;-65
2023/03/18 02:49:56;;;;;;;;;3.00;3.00;;;;;;;;117822;1186;25380;-64
2023/03/18 02:52:25;;;;;;;;;4.00;3.00;;;;;;;;117810;1177;25193;-65
2023/03/18 02:54:57;;;;;;;;;2.50;1.50;;;;;;;;117897;1178;25301;-65
2023/03/18 02:57:26;;;;;;;;;3.00;3.00;;;;;;;;117895;1177;26279;-65
2023/03/18 02:59:55;;;;;;;;;3.00;3.00;;;;;;;;117918;1179;24722;-66
2023/03/18 03:02:23;;;;;;;;;1.67;1.00;;;;;;;;117847;1187;24812;-66
2023/03/18 03:04:52;;;;;;;;;3.00;3.00;;;;;;;;117926;1182;24967;-66
2023/03/18 03:07:25;;;;;;;;;1.67;1.67;;;;;;;;117953;1177;25013;-65
2023/03/18 03:09:53;;;;;;;;;5.00;1.25;;;;;;;;117970;1177;25430;-65
2023/03/18 03:12:22;;;;;;;;;5.00;2.00;;;;;;;;117905;1184;25115;-64
2023/03/18 03:14:50;;;;;;;;;5.25;2.25;;;;;;;;117924;1177;26465;-64
2023/03/18 03:17:19;;;;;;;;;1.00;1.00;;;;;;;;117920;1179;25078;-65
2023/03/18 03:19:48;;;;;;;;;5.00;2.00;;;;;;;;117878;1190;25212;-66
2023/03/18 03:22:17;;;;;;;;;5.25;2.00;;;;;;;;117971;1177;25176;-64
2023/03/18 03:24:45;;;;;;;;;2.00;2.00;;;;;;;;117930;1179;25503;-65
2023/03/18 03:27:14;;;;;;;;;2.00;2.00;;;;;;;;117992;1188;24849;-66
2023/03/18 03:29:42;;;;;;;;;3.33;2.33;;;;;;;;117925;1177;26224;-65
2023/03/18 03:32:10;;;;;;;;;3.00;2.00;;;;;;;;117938;1177;24930;-66
2023/03/18 03:34:40;;;;;;;;;3.25;3.25;;;;;;;;117960;1190;25085;-66
2023/03/18 03:37:09;;;;;;;;;3.00;2.00;;;;;;;;117978;1180;24692;-66
2023/03/18 03:39:37;;;;;;;;;3.00;3.00;;;;;;;;117934;1178;25602;-65
2023/03/18 03:42:06;;;;;;;;;4.00;2.00;;;;;;;;117989;1190;25148;-65
2023/03/18 03:44:35;;;;;;;;;1.00;1.00;;;;;;;;117974;1177;25308;-66
2023/03/18 03:47:04;;;;;;;;;3.25;3.00;;;;;;;;117910;1180;25567;-66
2023/03/18 03:49:32;;;;;;;;;4.25;4.25;;;;;;;;117930;1182;25759;-65
2023/03/18 03:52:01;;;;;;;;;2.75;2.75;;;;;;;;117958;1179;24668;-65
2023/03/18 03:54:30;;;;;;;;;3.00;2.00;;;;;;;;117910;1187;25235;-66
2023/03/18 03:56:58;;;;;;;;;2.00;2.00;;;;;;;;117869;1181;24679;-65
2023/03/18 03:59:27;;;;;;;;;2.33;2.00;;;;;;;;117796;1177;25593;-73
2023/03/18 04:01:55;;;;;;;;;1.50;1.50;;;;;;;;117834;1179;25560;-73
2023/03/18 04:04:24;;;;;;;;;3.00;1.00;;;;;;;;117842;1191;24825;-71
2023/03/18 04:06:52;;;;;;;;;4.67;3.00;;;;;;;;117921;1179;25076;-66
2023/03/18 04:09:21;;;;;;;;;2.00;2.00;;;;;;;;117909;1191;25355;-66
2023/03/18 04:11:49;;;;;;;;;2.33;2.00;;;;;;;;117895;1183;25232;-66
2023/03/18 04:14:18;;;;;;;;;3.33;2.00;;;;;;;;117917;1179;25593;-65
2023/03/18 04:16:46;;;;;;;;;4.00;2.50;;;;;;;;117922;1179;25350;-66
2023/03/18 04:19:16;;;;;;;;;2.67;2.00;;;;;;;;117959;1180;25532;-66
2023/03/18 04:21:45;;;;;;;;;6.00;1.50;;;;;;;;117961;1191;25576;-66
2023/03/18 04:24:13;;;;;;;;;3.00;1.00;;;;;;;;117926;1179;25386;-66
2023/03/18 04:26:42;;;;;;;;;2.00;2.00;;;;;;;;117898;1179;25568;-66
2023/03/18 04:29:10;;;;;;;;;1.50;1.00;;;;;;;;117958;1181;25058;-66
2023/03/18 04:31:38;;;;;;;;;4.00;2.00;;;;;;;;117937;1179;25201;-66
2023/03/18 04:34:08;;;;;;;;;2.25;2.25;;;;;;;;117835;1192;25263;-65
2023/03/18 04:36:36;;;;;;;;;2.50;2.50;;;;;;;;117933;1181;25663;-65
2023/03/18 04:39:05;;;;;;;;;2.00;2.00;;;;;;;;117869;1180;24752;-64
2023/03/18 04:41:36;;;;;;;;;2.67;1.33;;;;;;;;117859;1190;25162;-66
2023/03/18 04:44:05;;;;;;;;;2.00;2.00;;;;;;;;117820;1179;25545;-65
2023/03/18 04:46:33;;;;;;;;;2.00;2.00;;;;;;;;117871;1179;24887;-66
2023/03/18 04:49:02;;;;;;;;;3.00;3.00;;;;;;;;117821;1179;25316;-67
2023/03/18 04:51:31;;;;;;;;;3.25;2.00;;;;;;;;117873;1182;25646;-70
2023/03/18 04:53:59;;;;;;;;;4.00;3.00;;;;;;;;117886;1183;25009;-73
2023/03/18 04:56:28;;;;;;;;;2.00;2.00;;;;;;;;117905;1179;25694;-68
2023/03/18 04:58:56;;;;;;;;;5.50;3.00;;;;;;;;117900;1184;25206;-73
2023/03/18 05:01:25;;;;;;;;;2.67;2.00;;;;;;;;117935;1191;24975;-73
2023/03/18 05:03:53;;;;;;;;;3.00;2.00;;;;;;;;117947;1183;25624;-75
2023/03/18 05:06:27;;;;;;;;;2.33;2.33;;;;;;;;117869;1177;25588;-67
2023/03/18 05:08:56;;;;;;;;;4.00;2.50;;;;;;;;117833;1183;25690;-66
2023/03/18 05:11:26;;;;;;;;;8.00;3.00;;;;;;;;117841;1179;25676;-66
2023/03/18 05:13:55;;;;;;;;;4.50;2.75;;;;;;;;117909;1179;25424;-66
2023/03/18 05:16:24;;;;;;;;;10.50;8.00;;;;;;;;117954;1180;25269;-66
2023/03/18 05:18:52;;;;;;;;;19.00;18.00;;;;;;;;117841;1186;25466;-66
2023/03/18 05:21:21;;;;;;;;;19.67;16.67;;;;;;;;117858;1184;25649;-65
2023/03/18 05:23:49;;;;;;;;;13.67;12.33;;;;;;;;117922;1177;25610;-64
2023/03/18 05:26:18;;;;;;;;;16.50;13.50;;;;;;;;117857;1191;25380;-63
2023/03/18 05:28:47;;;;;;;;;12.00;11.00;;;;;;;;117874;1177;25355;-65
2023/03/18 05:31:16;;;;;;;;;22.00;19.00;;;;;;;;117836;1177;25185;-66
2023/03/18 05:33:45;;;;;;;;;24.00;19.00;;;;;;;;117943;1177;25056;-64
2023/03/18 05:36:13;;;;;;;;;25.00;22.00;;;;;;;;117937;1180;24924;-64
2023/03/18 05:38:41;;;;;;;;;31.50;30.50;;;;;;;;117978;1183;25687;-63
2023/03/18 05:41:10;;;;;;;;;31.00;26.50;;;;;;;;117920;1188;24992;-63
2023/03/18 05:43:39;;;;;;;;;42.33;32.67;;;;;;;;117947;1179;25740;-64
2023/03/18 05:46:07;;;;;;;;;39.50;36.00;;;;;;;;117907;1186;24896;-64
2023/03/18 05:48:36;;;;;;;;;41.00;32.33;;;;;;;;117898;1177;25417;-64
2023/03/18 05:51:05;;;;;;;;;36.67;31.00;;;;;;;;117967;1178;25238;-64
2023/03/18 05:53:33;;;;;;;;;34.67;31.00;;;;;;;;117903;1187;25676;-65
2023/03/18 05:56:02;;;;;;;;;37.67;32.67;;;;;;;;117881;1179;24844;-65
2023/03/18 05:58:30;;;;;;;;;42.00;31.00;;;;;;;;117912;1190;24707;-64
2023/03/18 06:00:59;;;;;;;;;34.00;27.00;;;;;;;;117902;1179;25287;-63
2023/03/18 06:03:28;;;;;;;;;36.00;30.00;;;;;;;;117886;1190;25446;-63
2023/03/18 06:05:57;;;;;;;;;33.00;31.00;;;;;;;;117850;1191;24909;-62
2023/03/18 06:08:26;;;;;;;;;32.33;27.33;;;;;;;;117930;1181;25240;-62
2023/03/18 06:10:54;;;;;;;;;28.25;21.50;;;;;;;;117867;1179;25041;-66
2023/03/18 06:13:23;;;;;;;;;25.33;24.00;;;;;;;;117937;1180;24969;-62
2023/03/18 06:15:58;;;;;;;;;21.50;19.50;;;;;;;;117907;1187;25503;-62
2023/03/18 06:18:26;;;;;;;;;23.67;21.67;;;;;;;;117932;1178;25534;-62
2023/03/18 06:20:56;;;;;;;;;30.00;24.33;;;;;;;;117927;1181;25509;-62
2023/03/18 06:23:24;;;;;;;;;24.67;22.00;;;;;;;;117854;1190;25257;-62
2023/03/18 06:25:52;;;;;;;;;21.50;18.50;;;;;;;;117888;1177;24998;-63
2023/03/18 06:28:21;;;;;;;;;18.50;16.00;;;;;;;;117913;1178;25421;-63
2023/03/18 06:30:50;;;;;;;;;11.50;11.00;;;;;;;;117932;1177;25251;-63
2023/03/18 06:33:19;;;;;;;;;13.33;13.33;;;;;;;;117949;1179;24919;-62
2023/03/18 06:35:48;;;;;;;;;13.00;10.67;;;;;;;;117922;1178;25206;-63
2023/03/18 06:38:17;;;;;;;;;20.33;17.67;;;;;;;;117884;1179;24845;-65
2023/03/18 06:40:46;;;;;;;;;22.00;19.00;;;;;;;;117938;1190;26318;-64
2023/03/18 06:43:14;;;;;;;;;23.00;17.50;;;;;;;;117876;1181;25158;-63
2023/03/18 06:45:43;;;;;;;;;22.67;16.67;;;;;;;;117840;1190;24755;-63
2023/03/18 06:48:12;;;;;;;;;19.00;18.00;;;;;;;;117851;1179;25224;-63
2023/03/18 06:50:41;;;;;;;;;23.00;16.67;;;;;;;;117850;1190;25533;-63
2023/03/18 06:53:11;;;;;;;;;17.00;16.67;;;;;;;;117932;1186;25385;-63
2023/03/18 06:55:40;;;;;;;;;23.50;17.00;;;;;;;;117955;1190;24949;-62
2023/03/18 06:58:09;;;;;;;;;15.00;14.00;;;;;;;;117942;1179;24763;-63
2023/03/18 07:00:40;;;;;;;;;16.33;14.33;;;;;;;;117866;1190;25313;-64
2023/03/18 07:03:09;;;;;;;;;16.00;13.50;;;;;;;;117960;1176;24823;-63
2023/03/18 07:05:37;;;;;;;;;15.50;15.50;;;;;;;;117999;1177;24967;-64
2023/03/18 07:08:06;;;;;;;;;15.00;14.00;;;;;;;;118089;1177;24904;-64
2023/03/18 07:10:35;;;;;;;;;14.67;13.67;;;;;;;;117946;1177;25041;-64
2023/03/18 07:13:03;;;;;;;;;14.00;12.67;;;;;;;;117981;1186;25141;-63
2023/03/18 07:15:32;;;;;;;;;14.25;12.25;;;;;;;;118007;1176;24787;-63
2023/03/18 07:18:03;;;;;;;;;15.33;12.67;;;;;;;;117999;1177;24917;-64
2023/03/18 07:20:33;;;;;;;;;14.67;11.67;;;;;;;;118002;1179;24854;-64
2023/03/18 07:23:02;;;;;;;;;11.50;11.00;;;;;;;;117932;1190;25550;-64
2023/03/18 07:25:31;;;;;;;;;15.00;12.50;;;;;;;;117941;1177;25100;-67
2023/03/18 07:28:00;;;;;;;;;15.25;12.25;;;;;;;;117944;1181;25270;-68
2023/03/18 07:30:29;;;;;;;;;14.25;11.75;;;;;;;;118057;1177;26405;-64
2023/03/18 07:32:57;;;;;;;;;12.67;11.00;;;;;;;;117946;1179;25642;-64
2023/03/18 07:35:27;;;;;;;;;11.00;10.50;;;;;;;;118061;1178;25122;-62
2023/03/18 07:37:55;;;;;;;;;12.00;12.00;;;;;;;;117975;1177;25806;-63
2023/03/18 07:40:24;;;;;;;;;12.25;10.50;;;;;;;;117961;1190;25580;-62
2023/03/18 07:42:52;;;;;;;;;16.00;11.33;;;;;;;;117948;1190;25507;-61
2023/03/18 07:45:20;;;;;;;;;15.25;14.50;;;;;;;;117923;1190;25625;-61
2023/03/18 07:47:49;;;;;;;;;14.67;11.67;;;;;;;;117944;1177;25356;-61
2023/03/18 07:50:17;;;;;;;;;12.00;10.00;;;;;;;;117954;1177;25147;-61
2023/03/18 07:52:46;;;;;;;;;18.00;16.00;;;;;;;;117881;1179;24957;-60
2023/03/18 07:55:15;;;;;;;;;18.67;16.33;;;;;;;;117856;1186;25635;-61
2023/03/18 07:57:43;;;;;;;;;15.75;14.75;;;;;;;;118081;1177;24790;-60
2023/03/18 08:00:13;;;;;;;;;22.67;16.33;;;;;;;;117983;1179;24843;-61
2023/03/18 08:02:41;;;;;;;;;15.50;13.00;;;;;;;;118042;1177;25021;-61
2023/03/18 08:05:10;;;;;;;;;19.50;18.00;;;;;;;;118165;1177;25770;-61
2023/03/18 08:07:39;;;;;;;;;22.00;19.00;;;;;;;;117963;1183;24731;-60
2023/03/18 08:10:10;;;;;;;;;24.25;19.25;;;;;;;;117934;1184;24736;-60
2023/03/18 08:12:38;;;;;;;;;17.33;13.33;;;;;;;;117902;1186;24721;-60
2023/03/18 08:15:21;;;;;;;;;21.50;15.00;;;;;;;;117887;1190;25655;-59
2023/03/18 08:17:51;;;;;;;;;22.33;17.67;;;;;;;;117867;1177;25242;-58
2023/03/18 08:20:20;;;;;;;;;21.00;18.25;;;;;;;;117935;1182;25395;-59
2023/03/18 08:22:49;;;;;;;;;15.67;13.00;;;;;;;;118016;1190;25190;-59
2023/03/18 08:25:17;;;;;;;;;18.00;17.25;;;;;;;;117961;1178;24803;-57
2023/03/18 08:27:46;;;;;;;;;17.50;15.50;;;;;;;;117979;1182;25715;-59
2023/03/18 08:30:15;;;;;;;;;18.50;15.00;;;;;;;;117973;1179;25689;-58
2023/03/18 08:32:43;;;;;;;;;22.00;15.00;;;;;;;;117967;1190;24882;-60
2023/03/18 08:35:12;;;;;;;;;18.00;14.67;;;;;;;;117942;1177;25082;-57
2023/03/18 08:37:41;;;;;;;;;14.33;13.67;;;;;;;;117918;1186;25051;-60
2023/03/18 08:40:10;;;;;;;;;16.25;13.50;;;;;;;;117871;1177;24967;-59
2023/03/18 08:42:39;;;;;;;;;20.00;16.33;;;;;;;;118016;1177;25096;-64
2023/03/18 08:45:08;;;;;;;;;17.00;13.50;;;;;;;;117786;1189;25542;-60
2023/03/18 08:47:37;;;;;;;;;15.50;14.00;;;;;;;;117902;1179;25161;-61
2023/03/18 08:50:05;;;;;;;;;16.00;14.00;;;;;;;;117998;1186;25232;-60
2023/03/18 08:52:34;;;;;;;;;19.25;14.00;;;;;;;;117968;1177;25184;-60
2023/03/18 08:55:03;;;;;;;;;16.00;12.33;;;;;;;;117902;1178;24848;-62
2023/03/18 08:57:33;;;;;;;;;23.00;15.00;;;;;;;;117978;1176;25496;-63
2023/03/18 09:00:02;;;;;;;;;16.25;13.00;;;;;;;;118207;1177;24961;-62
2023/03/18 09:02:32;;;;;;;;;20.75;17.50;;;;;;;;118012;1177;25145;-62
2023/03/18 09:05:02;;;;;;;;;15.75;14.00;;;;;;;;117849;1182;24913;-63
2023/03/18 09:07:31;;;;;;;;;18.00;11.67;;;;;;;;117852;1177;25253;-64
2023/03/18 09:09:59;;;;;;;;;16.50;10.00;;;;;;;;117953;1177;25686;-63
2023/03/18 09:12:27;;;;;;;;;10.00;9.50;;;;;;;;117958;1181;24913;-63
2023/03/18 09:14:56;;;;;;;;;20.67;16.00;;;;;;;;117869;1178;24972;-63
2023/03/18 09:17:25;;;;;;;;;16.00;11.50;;;;;;;;118047;1177;25051;-63
2023/03/18 09:20:15;;;;;;;;;15.00;14.00;;;;;;;;118009;1177;25801;-63
2023/03/18 09:22:44;;;;;;;;;20.00;19.00;;;;;;;;118063;1177;24995;-63
2023/03/18 09:25:13;;;;;;;;;25.00;20.50;;;;;;;;118071;1190;25316;-62
2023/03/18 09:27:42;;;;;;;;;21.00;17.00;;;;;;;;117961;1190;25304;-63
2023/03/18 09:30:12;;;;;;;;;21.00;17.00;;;;;;;;118078;1176;25576;-62
2023/03/18 09:32:41;;;;;;;;;20.00;16.00;;;;;;;;118051;1178;25657;-62
2023/03/18 09:35:10;;;;;;;;;16.25;13.50;;;;;;;;117926;1181;25235;-66
2023/03/18 09:37:40;;;;;;;;;18.25;13.75;;;;;;;;118076;1177;25538;-63
2023/03/18 09:40:26;;;;;;;;;18.33;13.33;;;;;;;;117885;1190;25159;-63
2023/03/18 09:43:15;;;;;;;;;18.00;14.00;;;;;;;;117902;1177;25121;-62
2023/03/18 09:46:09;;;;;;;;;18.00;13.00;;;;;;;;117977;1179;25606;-63
2023/03/18 09:48:44;;;;;;;;;18.25;14.00;;;;;;;;118127;1190;25665;-64
2023/03/18 09:51:37;;;;;;;;;18.00;13.00;;;;;;;;117933;1190;25078;-62
2023/03/18 09:54:15;;;;;;;;;21.67;14.00;;;;;;;;117789;1179;26203;-63
2023/03/18 09:56:44;;;;;;;;;16.00;12.25;;;;;;;;117826;1190;25458;-62
2023/03/18 09:59:21;;;;;;;;;11.50;11.50;;;;;;;;117902;1179;25011;-62
2023/03/18 10:01:53;;;;;;;;;14.00;10.00;;;;;;;;117973;1177;25176;-61
2023/03/18 10:04:41;;;;;;;;;27.00;15.33;;;;;;;;117951;1186;24812;-61
2023/03/18 10:07:19;;;;;;;;;12.00;8.50;;;;;;;;117833;1180;25445;-63
2023/03/18 10:09:52;;;;;;;;;18.00;13.00;;;;;;;;117878;1180;25204;-61
2023/03/18 10:12:30;;;;;;;;;14.75;11.50;;;;;;;;117890;1180;25459;-61
2023/03/18 10:15:03;;;;;;;;;7.50;7.00;;;;;;;;118004;1177;25574;-64
2023/03/18 10:18:10;;;;;;;;;14.33;13.00;;;;;;;;117883;1189;25560;-67
2023/03/18 10:20:45;;;;;;;;;20.00;16.33;;;;;;;;118108;1190;25379;-63
2023/03/18 10:23:58;;;;;;;;;31.33;20.67;;;;;;;;118087;1181;24897;-66
2023/03/18 10:26:47;;;;;;;;;31.00;20.33;;;;;;;;117715;1180;24949;-64
2023/03/18 10:29:39;;;;;;;;;31.33;20.67;;;;;;;;118093;1187;25117;-61
2023/03/18 10:32:39;;;;;;;;;32.33;21.00;;;;;;;;117907;1180;25587;-61
2023/03/18 10:35:22;;;;;;;;;35.00;24.67;;;;;;;;117880;1177;24896;-63
2023/03/18 10:37:54;;;;;;;;;28.00;24.00;;;;;;;;117912;1179;25282;-62
2023/03/18 10:40:23;;;;;;;;;32.33;22.00;;;;;;;;117856;1183;25637;-61
2023/03/18 10:42:54;;;;;;;;;25.50;19.50;;;;;;;;117889;1184;25034;-62
2023/03/18 10:45:28;;;;;;;;;21.75;16.75;;;;;;;;118130;1183;25004;-63
2023/03/18 10:48:13;;;;;;;;;34.25;20.75;;;;;;;;118103;1177;24848;-65
2023/03/18 10:50:47;;;;;;;;;23.25;22.00;;;;;;;;117932;1177;24986;-65
2023/03/18 10:53:48;;;;;;;;;41.00;27.50;;;;;;;;117961;1177;25096;-66
2023/03/18 10:56:17;;;;;;;;;28.00;23.75;;;;;;;;117846;1182;25294;-62
2023/03/18 10:58:46;;;;;;;;;28.67;22.00;;;;;;;;118016;1177;24760;-62
2023/03/18 11:01:17;;;;;;;;;34.67;27.67;;;;;;;;117884;1190;25111;-63
2023/03/18 11:04:00;;;;;;;;;37.00;29.67;;;;;;;;118095;1177;25663;-61
2023/03/18 11:06:40;;;;;;;;;32.00;26.67;;;;;;;;117894;1178;25616;-62
2023/03/18 11:09:12;;;;;;;;;35.00;29.67;;;;;;;;118062;1177;25654;-63
2023/03/18 11:11:43;;;;;;;;;34.00;26.00;;;;;;;;118101;1190;25032;-62
2023/03/18 11:14:19;;;;;;;;;23.00;21.00;;;;;;;;117876;1186;25121;-62
2023/03/18 11:16:58;;;;;;;;;31.33;28.00;;;;;;;;117951;1181;25118;-62
2023/03/18 11:19:38;;;;;;;;;34.00;30.50;;;;;;;;118101;1176;24979;-61
2023/03/18 11:22:06;;;;;;;;;33.00;28.00;;;;;;;;118017;1177;24909;-61
2023/03/18 11:24:47;;;;;;;;;37.33;29.67;;;;;;;;119343;1189;24939;-61
2023/03/18 11:27:16;;;;;;;;;36.00;28.00;;;;;;;;118012;1178;25583;-61
2023/03/18 11:29:53;;;;;;;;;45.50;34.50;;;;;;;;118100;1178;25070;-62
2023/03/18 11:32:27;;;;;;;;;26.00;25.00;;;;;;;;118096;1177;25522;-62
2023/03/18 11:34:58;;;;;;;;;32.33;23.67;;;;;;;;118063;1177;25687;-60
2023/03/18 11:37:33;;;;;;;;;28.50;25.00;;;;;;;;118169;1177;25078;-61
2023/03/18 11:40:07;;;;;;;;;35.33;27.00;;;;;;;;118094;1190;25227;-62
2023/03/18 11:42:37;;;;;;;;;31.00;26.50;;;;;;;;118094;1190;25335;-62
2023/03/18 11:45:33;;;;;;;;;27.00;23.00;;;;;;;;117924;1177;25158;-62
2023/03/18 11:48:12;;;;;;;;;20.00;20.00;;;;;;;;118081;1177;25780;-61
2023/03/18 11:51:04;;;;;;;;;34.00;25.00;;;;;;;;117933;1177;24784;-62
2023/03/18 11:53:57;;;;;;;;;25.33;22.33;;;;;;;;117857;1181;25269;-61
2023/03/18 11:56:55;;;;;;;;;23.00;19.33;;;;;;;;118087;1177;25545;-62
2023/03/18 11:59:31;;;;;;;;;22.33;17.67;;;;;;;;118040;1176;24859;-63
2023/03/18 12:02:27;;;;;;;;;21.50;18.50;;;;;;;;118094;1178;25596;-63
2023/03/18 12:05:15;;;;;;;;;21.67;15.67;;;;;;;;118105;1190;25461;-64
2023/03/18 12:08:06;;;;;;;;;30.33;24.33;;;;;;;;117940;1177;25454;-64
2023/03/18 12:10:40;;;;;;;;;29.50;22.50;;;;;;;;117906;1176;25063;-63
2023/03/18 12:13:24;;;;;;;;;33.67;29.33;;;;;;;;117836;1183;25381;-62
2023/03/18 12:16:02;;;;;;;;;34.33;31.00;;;;;;;;118069;1176;25038;-62
2023/03/18 12:18:50;;;;;;;;;39.00;30.00;;;;;;;;118057;1176;25500;-60
2023/03/18 12:21:48;;;;;;;;;39.50;30.50;;;;;;;;117949;1182;25588;-61
2023/03/18 12:24:35;;;;;;;;;34.00;27.67;;;;;;;;117930;1190;25218;-62
2023/03/18 12:27:25;;;;;;;;;32.33;23.00;;;;;;;;117962;1177;25121;-62
2023/03/18 12:30:31;;;;;;;;;30.00;24.33;;;;;;;;117986;1190;25280;-62
2023/03/18 12:33:15;;;;;;;;;39.33;32.33;;;;;;;;117899;1177;25605;-62
2023/03/18 12:36:02;;;;;;;;;38.67;33.00;;;;;;;;118057;1177;24762;-62
2023/03/18 12:38:54;;;;;;;;;36.33;31.00;;;;;;;;118094;1178;24930;-62
2023/03/18 12:41:38;;;;;;;;;28.33;22.67;;;;;;;;117939;1182;24729;-64
2023/03/18 12:44:18;;;;;;;;;35.00;25.33;;;;;;;;118129;1178;25187;-63
2023/03/18 12:47:00;;;;;;;;;30.00;23.00;;;;;;;;117877;1183;25490;-63
2023/03/18 12:49:52;;;;;;;;;27.00;22.33;;;;;;;;117941;1178;25508;-63
2023/03/18 12:52:57;;;;;;;;;25.67;22.33;;;;;;;;118134;1177;25165;-63
2023/03/18 12:55:32;;;;;;;;;25.00;20.00;;;;;;;;118078;1190;25543;-63
2023/03/18 12:58:04;;;;;;;;;23.00;19.00;;;;;;;;117907;1190;25628;-63
2023/03/18 13:00:46;;;;;;;;;19.67;18.67;;;;;;;;118011;1177;25243;-63
2023/03/18 13:03:39;;;;;;;;;18.00;17.67;;;;;;;;117876;1177;25482;-62
2023/03/18 13:06:25;;;;;;;;;22.25;19.25;;;;;;;;117857;1189;24752;-63
2023/03/18 13:09:20;;;;;;;;;24.00;18.25;;;;;;;;117940;1190;24814;-63
2023/03/18 13:12:06;;;;;;;;;19.33;16.67;;;;;;;;118463;1177;25175;-63
2023/03/18 13:14:51;;;;;;;;;19.00;17.00;;;;;;;;117895;1177;25329;-63
2023/03/18 13:17:30;;;;;;;;;16.67;14.00;;;;;;;;118000;1190;25220;-63
2023/03/18 13:20:11;;;;;;;;;20.67;16.67;;;;;;;;117988;1177;24922;-63
2023/03/18 13:22:45;;;;;;;;;16.75;15.75;;;;;;;;117919;1190;25132;-64
2023/03/18 13:25:53;;;;;;;;;17.67;16.67;;;;;;;;118033;1177;24760;-64
2023/03/18 13:28:27;;;;;;;;;16.25;15.00;;;;;;;;118019;1177;24727;-64
2023/03/18 13:31:21;;;;;;;;;19.00;16.50;;;;;;;;117887;1183;24960;-63
2023/03/18 13:34:12;;;;;;;;;17.75;15.00;;;;;;;;117910;1190;25082;-63
2023/03/18 13:36:46;;;;;;;;;12.50;12.50;;;;;;;;117972;1178;24732;-63
2023/03/18 13:39:36;;;;;;;;;16.00;12.67;;;;;;;;118033;1182;25485;-62
2023/03/18 13:42:25;;;;;;;;;15.33;14.00;;;;;;;;117991;1184;25686;-63
2023/03/18 13:45:23;;;;;;;;;18.33;14.00;;;;;;;;118059;1178;24927;-63
2023/03/18 13:48:36;;;;;;;;;14.75;13.75;;;;;;;;117865;1180;24894;-62
2023/03/18 13:51:20;;;;;;;;;19.00;13.33;;;;;;;;117846;1179;24979;-63
2023/03/18 13:53:50;;;;;;;;;20.67;18.00;;;;;;;;117928;1179;25470;-62
2023/03/18 13:56:32;;;;;;;;;15.00;13.33;;;;;;;;117840;1180;24972;-64
2023/03/18 13:59:05;;;;;;;;;20.00;15.67;;;;;;;;117866;1177;25394;-63
2023/03/18 14:01:53;;;;;;;;;16.50;14.75;;;;;;;;117833;1190;25452;-63
2023/03/18 14:04:47;;;;;;;;;15.25;14.25;;;;;;;;117920;1184;25048;-62
2023/03/18 14:07:20;;;;;;;;;16.00;14.00;;;;;;;;117891;1190;25151;-62
2023/03/18 14:10:02;;;;;;;;;18.00;16.25;;;;;;;;118042;1190;25274;-62
2023/03/18 14:12:46;;;;;;;;;12.00;12.00;;;;;;;;118079;1178;25558;-67
2023/03/18 14:15:29;;;;;;;;;14.00;13.00;;;;;;;;117884;1179;26659;-68
2023/03/18 14:17:59;;;;;;;;;14.00;13.25;;;;;;;;118007;1186;25596;-65
2023/03/18 14:20:40;;;;;;;;;13.33;13.00;;;;;;;;117974;1177;24922;-64
2023/03/18 14:23:28;;;;;;;;;14.00;13.50;;;;;;;;117858;1186;24776;-66
2023/03/18 14:26:04;;;;;;;;;17.00;13.75;;;;;;;;117868;1181;25005;-62
2023/03/18 14:29:02;;;;;;;;;17.50;14.00;;;;;;;;117785;1177;25197;-65
2023/03/18 14:31:31;;;;;;;;;17.00;13.00;;;;;;;;117948;1190;25046;-66
2023/03/18 14:34:03;;;;;;;;;17.33;11.33;;;;;;;;118011;1177;25229;-63
2023/03/18 14:36:55;;;;;;;;;12.50;11.75;;;;;;;;117981;1177;24935;-63
2023/03/18 14:39:36;;;;;;;;;13.00;11.75;;;;;;;;117666;1180;25672;-63
2023/03/18 14:42:27;;;;;;;;;16.25;13.00;;;;;;;;117959;1190;25372;-63
2023/03/18 14:45:20;;;;;;;;;14.33;13.33;;;;;;;;117883;1179;25031;-64
2023/03/18 14:47:51;;;;;;;;;12.00;11.50;;;;;;;;117906;1190;24831;-61
2023/03/18 14:50:26;;;;;;;;;16.33;14.33;;;;;;;;117922;1177;25599;-64
2023/03/18 14:53:02;;;;;;;;;13.75;11.50;;;;;;;;118038;1177;24765;-64